sensor_id;sensor_type;location;lat;lon;timestamp;temperature;humidity
18305;DHT22;9278;52.156;21.048;2022-11-02T00:00:34;10.70;1.00
18305;DHT22;9278;52.156;21.048;2022-11-02T00:03:02;10.60;1.00
18305;DHT22;9278;52.156;21.048;2022-11-02T00:05:30;10.60;1.00
18305;DHT22;9278;52.156;21.048;2022-11-02T00:08:00;10.60;1.00
18305;DHT22;9278;52.156;21.048;2022-11-02T00:10:28;10.60;1.00
18305;DHT22;9278;52.156;21.048;2022-11-02T00:12:57;10.60;1.00
18305;DHT22;9278;52.156;21.048;2022-11-02T00:15:27;10.60;1.00
18305;DHT22;9278;52.156;21.048;2022-11-02T00:17:58;10.60;1.00
18305;DHT22;9278;52.156;21.048;2022-11-02T00:20:27;10.60;1.00
18305;DHT22;9278;52.156;21.048;2022-11-02T00:22:57;10.60;1.00
18305;DHT22;9278;52.156;21.048;2022-11-02T00:25:28;10.70;1.00
18305;DHT22;9278;52.156;21.048;2022-11-02T00:27:56;10.70;1.00
18305;DHT22;9278;52.156;21.048;2022-11-02T00:30:25;10.70;1.00
18305;DHT22;9278;52.156;21.048;2022-11-02T00:32:53;10.70;1.00
18305;DHT22;9278;52.156;21.048;2022-11-02T00:35:22;10.80;1.00
18305;DHT22;9278;52.156;21.048;2022-11-02T00:37:51;10.80;1.00
18305;DHT22;9278;52.156;21.048;2022-11-02T00:40:19;10.80;1.00
18305;DHT22;9278;52.156;21.048;2022-11-02T00:42:49;10.80;1.00
18305;DHT22;9278;52.156;21.048;2022-11-02T00:45:17;10.80;1.00
18305;DHT22;9278;52.156;21.048;2022-11-02T00:47:45;10.80;1.00
18305;DHT22;9278;52.156;21.048;2022-11-02T00:50:14;10.90;1.00
18305;DHT22;9278;52.156;21.048;2022-11-02T00:52:43;10.80;1.00
18305;DHT22;9278;52.156;21.048;2022-11-02T00:55:12;10.90;1.00
18305;DHT22;9278;52.156;21.048;2022-11-02T00:57:43;10.90;1.00
18305;DHT22;9278;52.156;21.048;2022-11-02T01:00:14;11.00;1.00
18305;DHT22;9278;52.156;21.048;2022-11-02T01:02:42;10.80;1.00
18305;DHT22;9278;52.156;21.048;2022-11-02T01:05:11;10.80;1.00
18305;DHT22;9278;52.156;21.048;2022-11-02T01:07:39;10.90;1.00
18305;DHT22;9278;52.156;21.048;2022-11-02T01:10:09;10.90;1.00
18305;DHT22;9278;52.156;21.048;2022-11-02T01:12:39;10.90;1.00
18305;DHT22;9278;52.156;21.048;2022-11-02T01:15:10;10.90;1.00
18305;DHT22;9278;52.156;21.048;2022-11-02T01:17:39;10.80;1.00
18305;DHT22;9278;52.156;21.048;2022-11-02T01:20:08;10.90;1.00
18305;DHT22;9278;52.156;21.048;2022-11-02T01:22:37;11.00;1.00
18305;DHT22;9278;52.156;21.048;2022-11-02T01:25:05;10.90;1.00
18305;DHT22;9278;52.156;21.048;2022-11-02T01:27:34;11.10;1.00
18305;DHT22;9278;52.156;21.048;2022-11-02T01:30:03;11.00;1.00
18305;DHT22;9278;52.156;21.048;2022-11-02T01:32:31;10.90;1.00
18305;DHT22;9278;52.156;21.048;2022-11-02T01:35:01;10.90;1.00
18305;DHT22;9278;52.156;21.048;2022-11-02T01:37:29;11.00;1.00
18305;DHT22;9278;52.156;21.048;2022-11-02T01:39:58;11.00;1.00
18305;DHT22;9278;52.156;21.048;2022-11-02T01:42:26;11.00;1.00
18305;DHT22;9278;52.156;21.048;2022-11-02T01:44:55;10.90;1.00
18305;DHT22;9278;52.156;21.048;2022-11-02T01:47:26;11.00;1.00
18305;DHT22;9278;52.156;21.048;2022-11-02T01:49:57;10.90;1.00
18305;DHT22;9278;52.156;21.048;2022-11-02T01:52:32;10.90;1.00
18305;DHT22;9278;52.156;21.048;2022-11-02T01:55:05;11.00;1.00
18305;DHT22;9278;52.156;21.048;2022-11-02T01:57:36;10.90;1.00
18305;DHT22;9278;52.156;21.048;2022-11-02T02:00:07;11.00;1.00
18305;DHT22;9278;52.156;21.048;2022-11-02T02:02:42;10.90;1.00
18305;DHT22;9278;52.156;21.048;2022-11-02T02:05:13;10.90;1.00
18305;DHT22;9278;52.156;21.048;2022-11-02T02:07:45;10.90;1.00
18305;DHT22;9278;52.156;21.048;2022-11-02T02:10:14;10.90;1.00
18305;DHT22;9278;52.156;21.048;2022-11-02T02:12:43;10.90;1.00
18305;DHT22;9278;52.156;21.048;2022-11-02T02:15:16;10.90;1.00
18305;DHT22;9278;52.156;21.048;2022-11-02T02:17:49;11.00;1.00
18305;DHT22;9278;52.156;21.048;2022-11-02T02:20:36;11.10;1.00
18305;DHT22;9278;52.156;21.048;2022-11-02T02:23:19;11.00;1.00
18305;DHT22;9278;52.156;21.048;2022-11-02T02:26:11;11.00;1.00
18305;DHT22;9278;52.156;21.048;2022-11-02T02:28:47;11.00;1.00
18305;DHT22;9278;52.156;21.048;2022-11-02T02:31:19;11.10;1.00
18305;DHT22;9278;52.156;21.048;2022-11-02T02:33:55;11.00;1.00
18305;DHT22;9278;52.156;21.048;2022-11-02T02:36:30;11.00;1.00
18305;DHT22;9278;52.156;21.048;2022-11-02T02:39:03;11.10;1.00
18305;DHT22;9278;52.156;21.048;2022-11-02T02:41:37;11.10;1.00
18305;DHT22;9278;52.156;21.048;2022-11-02T02:44:10;11.10;1.00
18305;DHT22;9278;52.156;21.048;2022-11-02T02:46:45;11.20;1.00
18305;DHT22;9278;52.156;21.048;2022-11-02T02:49:25;11.20;1.00
18305;DHT22;9278;52.156;21.048;2022-11-02T02:51:56;11.20;1.00
18305;DHT22;9278;52.156;21.048;2022-11-02T02:54:29;11.10;1.00
18305;DHT22;9278;52.156;21.048;2022-11-02T02:57:04;11.10;1.00
18305;DHT22;9278;52.156;21.048;2022-11-02T02:59:38;11.00;1.00
18305;DHT22;9278;52.156;21.048;2022-11-02T03:02:13;11.10;1.00
18305;DHT22;9278;52.156;21.048;2022-11-02T03:04:43;11.00;1.00
18305;DHT22;9278;52.156;21.048;2022-11-02T03:07:16;11.00;1.00
18305;DHT22;9278;52.156;21.048;2022-11-02T03:09:50;11.00;65.50
18305;DHT22;9278;52.156;21.048;2022-11-02T03:12:25;11.00;99.90
18305;DHT22;9278;52.156;21.048;2022-11-02T03:15:09;11.10;99.90
18305;DHT22;9278;52.156;21.048;2022-11-02T03:17:45;11.00;99.90
18305;DHT22;9278;52.156;21.048;2022-11-02T03:20:22;11.10;99.90
18305;DHT22;9278;52.156;21.048;2022-11-02T03:22:59;11.10;99.90
18305;DHT22;9278;52.156;21.048;2022-11-02T03:25:34;11.20;99.90
18305;DHT22;9278;52.156;21.048;2022-11-02T03:28:10;11.10;99.90
18305;DHT22;9278;52.156;21.048;2022-11-02T03:30:46;11.20;99.90
18305;DHT22;9278;52.156;21.048;2022-11-02T03:33:19;11.20;99.90
18305;DHT22;9278;52.156;21.048;2022-11-02T03:35:53;11.20;99.90
18305;DHT22;9278;52.156;21.048;2022-11-02T03:38:31;11.20;99.90
18305;DHT22;9278;52.156;21.048;2022-11-02T03:41:03;11.30;99.90
18305;DHT22;9278;52.156;21.048;2022-11-02T03:43:35;11.40;99.90
18305;DHT22;9278;52.156;21.048;2022-11-02T03:46:09;11.30;99.90
18305;DHT22;9278;52.156;21.048;2022-11-02T03:48:41;11.40;99.90
18305;DHT22;9278;52.156;21.048;2022-11-02T03:51:16;11.40;99.90
18305;DHT22;9278;52.156;21.048;2022-11-02T03:53:49;11.50;99.90
18305;DHT22;9278;52.156;21.048;2022-11-02T03:56:21;11.40;99.90
18305;DHT22;9278;52.156;21.048;2022-11-02T03:58:52;11.60;99.90
18305;DHT22;9278;52.156;21.048;2022-11-02T04:01:23;11.70;99.90
18305;DHT22;9278;52.156;21.048;2022-11-02T04:03:55;11.60;99.90
18305;DHT22;9278;52.156;21.048;2022-11-02T04:06:26;11.70;99.90
18305;DHT22;9278;52.156;21.048;2022-11-02T04:08:54;11.60;99.90
18305;DHT22;9278;52.156;21.048;2022-11-02T04:11:23;11.60;99.90
18305;DHT22;9278;52.156;21.048;2022-11-02T04:14:12;11.70;99.90
18305;DHT22;9278;52.156;21.048;2022-11-02T04:17:00;11.60;99.90
18305;DHT22;9278;52.156;21.048;2022-11-02T04:19:50;11.60;99.90
18305;DHT22;9278;52.156;21.048;2022-11-02T04:22:20;11.70;99.90
18305;DHT22;9278;52.156;21.048;2022-11-02T04:25:14;11.80;99.90
18305;DHT22;9278;52.156;21.048;2022-11-02T04:28:07;11.70;99.90
18305;DHT22;9278;52.156;21.048;2022-11-02T04:30:42;11.70;99.90
18305;DHT22;9278;52.156;21.048;2022-11-02T04:33:11;11.80;99.90
18305;DHT22;9278;52.156;21.048;2022-11-02T04:36:06;11.80;99.90
18305;DHT22;9278;52.156;21.048;2022-11-02T04:38:37;11.80;99.90
18305;DHT22;9278;52.156;21.048;2022-11-02T04:41:26;11.90;99.90
18305;DHT22;9278;52.156;21.048;2022-11-02T04:44:17;11.80;99.90
18305;DHT22;9278;52.156;21.048;2022-11-02T04:46:57;11.90;99.90
18305;DHT22;9278;52.156;21.048;2022-11-02T04:49:31;11.80;99.90
18305;DHT22;9278;52.156;21.048;2022-11-02T04:51:59;11.80;99.90
18305;DHT22;9278;52.156;21.048;2022-11-02T04:54:29;11.80;99.90
18305;DHT22;9278;52.156;21.048;2022-11-02T04:57:01;11.80;99.90
18305;DHT22;9278;52.156;21.048;2022-11-02T04:59:30;11.80;99.90
18305;DHT22;9278;52.156;21.048;2022-11-02T05:01:59;11.80;99.90
18305;DHT22;9278;52.156;21.048;2022-11-02T05:04:27;11.80;1.00
18305;DHT22;9278;52.156;21.048;2022-11-02T05:06:58;11.80;1.00
18305;DHT22;9278;52.156;21.048;2022-11-02T05:09:32;11.90;1.00
18305;DHT22;9278;52.156;21.048;2022-11-02T05:12:02;11.90;1.00
18305;DHT22;9278;52.156;21.048;2022-11-02T05:14:32;11.90;1.00
18305;DHT22;9278;52.156;21.048;2022-11-02T05:17:01;12.00;1.00
18305;DHT22;9278;52.156;21.048;2022-11-02T05:19:31;12.00;1.00
18305;DHT22;9278;52.156;21.048;2022-11-02T05:22:02;11.90;1.00
18305;DHT22;9278;52.156;21.048;2022-11-02T05:24:32;11.90;1.00
18305;DHT22;9278;52.156;21.048;2022-11-02T05:27:00;11.90;1.00
18305;DHT22;9278;52.156;21.048;2022-11-02T05:29:32;12.00;1.00
18305;DHT22;9278;52.156;21.048;2022-11-02T05:32:00;12.00;1.00
18305;DHT22;9278;52.156;21.048;2022-11-02T05:34:28;12.00;1.00
18305;DHT22;9278;52.156;21.048;2022-11-02T05:36:58;12.00;1.00
18305;DHT22;9278;52.156;21.048;2022-11-02T05:39:27;12.00;1.00
18305;DHT22;9278;52.156;21.048;2022-11-02T05:41:56;12.20;1.00
18305;DHT22;9278;52.156;21.048;2022-11-02T05:44:25;12.10;1.00
18305;DHT22;9278;52.156;21.048;2022-11-02T05:46:53;12.10;1.00
18305;DHT22;9278;52.156;21.048;2022-11-02T05:49:21;12.10;1.00
18305;DHT22;9278;52.156;21.048;2022-11-02T05:51:50;12.20;1.00
18305;DHT22;9278;52.156;21.048;2022-11-02T05:54:18;12.10;1.00
18305;DHT22;9278;52.156;21.048;2022-11-02T05:56:47;12.20;99.90
18305;DHT22;9278;52.156;21.048;2022-11-02T05:59:16;12.20;99.90
18305;DHT22;9278;52.156;21.048;2022-11-02T06:01:44;12.10;99.90
18305;DHT22;9278;52.156;21.048;2022-11-02T06:04:12;12.10;1.00
18305;DHT22;9278;52.156;21.048;2022-11-02T06:06:41;12.10;1.00
18305;DHT22;9278;52.156;21.048;2022-11-02T06:09:09;12.20;1.00
18305;DHT22;9278;52.156;21.048;2022-11-02T06:11:37;12.20;1.00
18305;DHT22;9278;52.156;21.048;2022-11-02T06:14:07;12.20;1.00
18305;DHT22;9278;52.156;21.048;2022-11-02T06:16:35;12.20;1.00
18305;DHT22;9278;52.156;21.048;2022-11-02T06:19:04;12.30;1.00
18305;DHT22;9278;52.156;21.048;2022-11-02T06:21:32;12.20;1.00
18305;DHT22;9278;52.156;21.048;2022-11-02T06:24:00;12.30;1.00
18305;DHT22;9278;52.156;21.048;2022-11-02T06:26:28;12.30;1.00
18305;DHT22;9278;52.156;21.048;2022-11-02T06:28:57;12.40;1.00
18305;DHT22;9278;52.156;21.048;2022-11-02T06:31:26;12.60;99.90
18305;DHT22;9278;52.156;21.048;2022-11-02T06:33:55;12.60;99.90
18305;DHT22;9278;52.156;21.048;2022-11-02T06:36:23;12.50;99.90
18305;DHT22;9278;52.156;21.048;2022-11-02T06:38:51;12.60;20.00
18305;DHT22;9278;52.156;21.048;2022-11-02T06:41:19;12.70;1.00
18305;DHT22;9278;52.156;21.048;2022-11-02T06:43:48;12.70;1.00
18305;DHT22;9278;52.156;21.048;2022-11-02T06:46:16;12.70;1.00
18305;DHT22;9278;52.156;21.048;2022-11-02T06:48:47;12.70;1.00
18305;DHT22;9278;52.156;21.048;2022-11-02T06:51:15;12.90;1.00
18305;DHT22;9278;52.156;21.048;2022-11-02T06:53:43;13.00;1.00
18305;DHT22;9278;52.156;21.048;2022-11-02T06:56:11;12.90;1.00
18305;DHT22;9278;52.156;21.048;2022-11-02T06:58:40;12.90;1.00
18305;DHT22;9278;52.156;21.048;2022-11-02T07:01:08;12.80;1.00
18305;DHT22;9278;52.156;21.048;2022-11-02T07:03:36;12.90;1.00
18305;DHT22;9278;52.156;21.048;2022-11-02T07:06:06;12.90;1.00
18305;DHT22;9278;52.156;21.048;2022-11-02T07:08:40;12.90;1.00
18305;DHT22;9278;52.156;21.048;2022-11-02T07:11:12;13.00;1.00
18305;DHT22;9278;52.156;21.048;2022-11-02T07:13:41;13.10;1.00
18305;DHT22;9278;52.156;21.048;2022-11-02T07:16:09;13.10;1.00
18305;DHT22;9278;52.156;21.048;2022-11-02T07:18:37;13.00;1.00
18305;DHT22;9278;52.156;21.048;2022-11-02T07:21:07;13.10;1.00
18305;DHT22;9278;52.156;21.048;2022-11-02T07:23:37;13.00;1.00
18305;DHT22;9278;52.156;21.048;2022-11-02T07:26:05;13.10;1.00
18305;DHT22;9278;52.156;21.048;2022-11-02T07:28:33;13.00;1.00
18305;DHT22;9278;52.156;21.048;2022-11-02T07:31:04;13.00;1.00
18305;DHT22;9278;52.156;21.048;2022-11-02T07:33:32;13.10;1.00
18305;DHT22;9278;52.156;21.048;2022-11-02T07:36:02;13.20;1.00
18305;DHT22;9278;52.156;21.048;2022-11-02T07:38:32;13.10;1.00
18305;DHT22;9278;52.156;21.048;2022-11-02T07:41:01;13.30;1.00
18305;DHT22;9278;52.156;21.048;2022-11-02T07:43:29;13.40;1.00
18305;DHT22;9278;52.156;21.048;2022-11-02T07:46:14;13.40;1.00
18305;DHT22;9278;52.156;21.048;2022-11-02T07:48:42;13.50;1.00
18305;DHT22;9278;52.156;21.048;2022-11-02T07:51:10;13.40;1.00
18305;DHT22;9278;52.156;21.048;2022-11-02T07:53:40;13.50;1.00
18305;DHT22;9278;52.156;21.048;2022-11-02T07:56:08;13.70;1.00
18305;DHT22;9278;52.156;21.048;2022-11-02T07:58:38;13.50;1.00
18305;DHT22;9278;52.156;21.048;2022-11-02T08:01:06;13.30;1.00
18305;DHT22;9278;52.156;21.048;2022-11-02T08:03:34;13.30;1.00
18305;DHT22;9278;52.156;21.048;2022-11-02T08:06:03;13.20;1.00
18305;DHT22;9278;52.156;21.048;2022-11-02T08:08:31;13.10;1.00
18305;DHT22;9278;52.156;21.048;2022-11-02T08:11:05;13.20;1.00
18305;DHT22;9278;52.156;21.048;2022-11-02T08:13:35;13.20;1.00
18305;DHT22;9278;52.156;21.048;2022-11-02T08:16:04;13.30;1.00
18305;DHT22;9278;52.156;21.048;2022-11-02T08:18:32;13.40;1.00
18305;DHT22;9278;52.156;21.048;2022-11-02T08:21:01;13.70;1.00
18305;DHT22;9278;52.156;21.048;2022-11-02T08:23:30;13.80;1.00
18305;DHT22;9278;52.156;21.048;2022-11-02T08:25:58;14.00;1.00
18305;DHT22;9278;52.156;21.048;2022-11-02T08:28:30;14.00;1.00
18305;DHT22;9278;52.156;21.048;2022-11-02T08:31:01;14.10;1.00
18305;DHT22;9278;52.156;21.048;2022-11-02T08:33:29;14.00;1.00
18305;DHT22;9278;52.156;21.048;2022-11-02T08:36:00;14.00;1.00
18305;DHT22;9278;52.156;21.048;2022-11-02T08:38:31;14.30;1.00
18305;DHT22;9278;52.156;21.048;2022-11-02T08:40:59;14.20;99.90
18305;DHT22;9278;52.156;21.048;2022-11-02T08:43:28;14.50;99.90
18305;DHT22;9278;52.156;21.048;2022-11-02T08:45:58;14.50;99.90
18305;DHT22;9278;52.156;21.048;2022-11-02T08:48:43;14.40;99.90
18305;DHT22;9278;52.156;21.048;2022-11-02T08:51:11;14.30;99.90
18305;DHT22;9278;52.156;21.048;2022-11-02T08:53:40;14.60;99.90
18305;DHT22;9278;52.156;21.048;2022-11-02T08:56:16;14.90;99.90
18305;DHT22;9278;52.156;21.048;2022-11-02T08:58:45;15.10;99.90
18305;DHT22;9278;52.156;21.048;2022-11-02T09:01:14;15.20;99.90
18305;DHT22;9278;52.156;21.048;2022-11-02T09:03:42;14.90;99.90
18305;DHT22;9278;52.156;21.048;2022-11-02T09:06:10;15.00;99.90
18305;DHT22;9278;52.156;21.048;2022-11-02T09:08:38;15.00;99.90
18305;DHT22;9278;52.156;21.048;2022-11-02T09:11:06;15.10;99.90
18305;DHT22;9278;52.156;21.048;2022-11-02T09:13:36;15.50;99.90
18305;DHT22;9278;52.156;21.048;2022-11-02T09:16:06;15.20;99.90
18305;DHT22;9278;52.156;21.048;2022-11-02T09:18:36;14.90;99.90
18305;DHT22;9278;52.156;21.048;2022-11-02T09:21:04;15.20;99.90
18305;DHT22;9278;52.156;21.048;2022-11-02T09:23:32;15.20;99.90
18305;DHT22;9278;52.156;21.048;2022-11-02T09:26:01;15.40;99.90
18305;DHT22;9278;52.156;21.048;2022-11-02T09:28:29;15.60;99.90
18305;DHT22;9278;52.156;21.048;2022-11-02T09:30:57;15.10;99.90
18305;DHT22;9278;52.156;21.048;2022-11-02T09:33:27;15.10;99.90
18305;DHT22;9278;52.156;21.048;2022-11-02T09:35:55;15.20;99.90
18305;DHT22;9278;52.156;21.048;2022-11-02T09:38:28;15.30;99.90
18305;DHT22;9278;52.156;21.048;2022-11-02T09:41:03;15.60;99.90
18305;DHT22;9278;52.156;21.048;2022-11-02T09:43:40;15.30;99.90
18305;DHT22;9278;52.156;21.048;2022-11-02T09:46:11;15.40;99.90
18305;DHT22;9278;52.156;21.048;2022-11-02T09:48:43;14.80;99.90
18305;DHT22;9278;52.156;21.048;2022-11-02T09:51:15;14.60;99.90
18305;DHT22;9278;52.156;21.048;2022-11-02T09:53:51;15.10;99.90
18305;DHT22;9278;52.156;21.048;2022-11-02T09:56:22;15.20;99.90
18305;DHT22;9278;52.156;21.048;2022-11-02T09:58:56;15.20;99.90
18305;DHT22;9278;52.156;21.048;2022-11-02T10:01:35;15.20;99.90
18305;DHT22;9278;52.156;21.048;2022-11-02T10:07:13;14.40;99.90
18305;DHT22;9278;52.156;21.048;2022-11-02T10:09:49;14.70;99.90
18305;DHT22;9278;52.156;21.048;2022-11-02T10:12:25;14.80;99.90
18305;DHT22;9278;52.156;21.048;2022-11-02T10:14:59;14.60;99.90
18305;DHT22;9278;52.156;21.048;2022-11-02T10:17:35;14.80;99.90
18305;DHT22;9278;52.156;21.048;2022-11-02T10:20:15;14.50;99.90
18305;DHT22;9278;52.156;21.048;2022-11-02T10:22:46;14.70;99.90
18305;DHT22;9278;52.156;21.048;2022-11-02T10:25:15;14.90;99.90
18305;DHT22;9278;52.156;21.048;2022-11-02T10:27:47;15.00;99.90
18305;DHT22;9278;52.156;21.048;2022-11-02T10:30:19;14.80;99.90
18305;DHT22;9278;52.156;21.048;2022-11-02T10:32:50;14.80;99.90
18305;DHT22;9278;52.156;21.048;2022-11-02T10:35:25;14.90;99.90
18305;DHT22;9278;52.156;21.048;2022-11-02T10:38:23;14.90;99.90
18305;DHT22;9278;52.156;21.048;2022-11-02T10:41:09;15.30;99.90
18305;DHT22;9278;52.156;21.048;2022-11-02T10:43:51;15.10;99.90
18305;DHT22;9278;52.156;21.048;2022-11-02T10:46:42;14.80;99.90
18305;DHT22;9278;52.156;21.048;2022-11-02T10:49:24;14.80;99.90
18305;DHT22;9278;52.156;21.048;2022-11-02T10:51:58;15.00;99.90
18305;DHT22;9278;52.156;21.048;2022-11-02T10:54:27;15.00;99.90
18305;DHT22;9278;52.156;21.048;2022-11-02T10:57:06;15.30;99.90
18305;DHT22;9278;52.156;21.048;2022-11-02T10:59:37;15.00;99.90
18305;DHT22;9278;52.156;21.048;2022-11-02T11:02:11;15.40;99.90
18305;DHT22;9278;52.156;21.048;2022-11-02T11:04:41;15.00;99.90
18305;DHT22;9278;52.156;21.048;2022-11-02T11:07:16;15.00;99.90
18305;DHT22;9278;52.156;21.048;2022-11-02T11:09:50;15.60;99.90
18305;DHT22;9278;52.156;21.048;2022-11-02T11:12:22;15.80;99.90
18305;DHT22;9278;52.156;21.048;2022-11-02T11:14:55;15.70;99.90
18305;DHT22;9278;52.156;21.048;2022-11-02T11:17:43;15.90;99.90
18305;DHT22;9278;52.156;21.048;2022-11-02T11:20:34;16.00;99.90
18305;DHT22;9278;52.156;21.048;2022-11-02T11:23:15;15.70;99.90
18305;DHT22;9278;52.156;21.048;2022-11-02T11:25:54;15.40;99.90
18305;DHT22;9278;52.156;21.048;2022-11-02T11:28:25;15.70;99.90
18305;DHT22;9278;52.156;21.048;2022-11-02T11:31:05;16.00;99.90
18305;DHT22;9278;52.156;21.048;2022-11-02T11:33:45;15.70;99.90
18305;DHT22;9278;52.156;21.048;2022-11-02T11:36:25;15.50;99.90
18305;DHT22;9278;52.156;21.048;2022-11-02T11:38:58;15.50;99.90
18305;DHT22;9278;52.156;21.048;2022-11-02T11:41:27;15.20;99.90
18305;DHT22;9278;52.156;21.048;2022-11-02T11:43:57;15.00;99.90
18305;DHT22;9278;52.156;21.048;2022-11-02T11:46:38;14.80;99.90
18305;DHT22;9278;52.156;21.048;2022-11-02T11:49:18;14.80;99.90
18305;DHT22;9278;52.156;21.048;2022-11-02T11:52:02;14.60;99.90
18305;DHT22;9278;52.156;21.048;2022-11-02T11:54:32;14.50;99.90
18305;DHT22;9278;52.156;21.048;2022-11-02T11:57:16;15.00;99.90
18305;DHT22;9278;52.156;21.048;2022-11-02T11:59:49;15.20;99.90
18305;DHT22;9278;52.156;21.048;2022-11-02T12:02:21;15.00;99.90
18305;DHT22;9278;52.156;21.048;2022-11-02T12:04:57;15.20;99.90
18305;DHT22;9278;52.156;21.048;2022-11-02T12:10:57;14.90;99.90
18305;DHT22;9278;52.156;21.048;2022-11-02T12:13:42;15.30;99.90
18305;DHT22;9278;52.156;21.048;2022-11-02T12:16:20;15.20;99.90
18305;DHT22;9278;52.156;21.048;2022-11-02T12:19:09;15.20;99.90
18305;DHT22;9278;52.156;21.048;2022-11-02T12:21:50;14.80;99.90
18305;DHT22;9278;52.156;21.048;2022-11-02T12:27:34;14.70;99.90
18305;DHT22;9278;52.156;21.048;2022-11-02T12:30:11;14.70;99.90
18305;DHT22;9278;52.156;21.048;2022-11-02T12:33:03;15.00;99.90
18305;DHT22;9278;52.156;21.048;2022-11-02T12:35:49;15.30;99.90
18305;DHT22;9278;52.156;21.048;2022-11-02T12:38:40;14.80;99.90
18305;DHT22;9278;52.156;21.048;2022-11-02T12:41:18;14.90;99.90
18305;DHT22;9278;52.156;21.048;2022-11-02T12:43:53;14.90;99.90
18305;DHT22;9278;52.156;21.048;2022-11-02T12:46:30;15.00;99.90
18305;DHT22;9278;52.156;21.048;2022-11-02T12:49:17;14.90;99.90
18305;DHT22;9278;52.156;21.048;2022-11-02T12:51:53;15.10;99.90
18305;DHT22;9278;52.156;21.048;2022-11-02T12:54:27;15.50;99.90
18305;DHT22;9278;52.156;21.048;2022-11-02T12:56:57;15.30;99.90
18305;DHT22;9278;52.156;21.048;2022-11-02T12:59:29;15.50;99.90
18305;DHT22;9278;52.156;21.048;2022-11-02T13:02:04;15.40;99.90
18305;DHT22;9278;52.156;21.048;2022-11-02T13:04:43;15.30;99.90
18305;DHT22;9278;52.156;21.048;2022-11-02T13:07:14;15.20;99.90
18305;DHT22;9278;52.156;21.048;2022-11-02T13:09:51;15.10;99.90
18305;DHT22;9278;52.156;21.048;2022-11-02T13:12:22;15.20;99.90
18305;DHT22;9278;52.156;21.048;2022-11-02T13:14:54;15.10;99.90
18305;DHT22;9278;52.156;21.048;2022-11-02T13:17:27;15.00;99.90
18305;DHT22;9278;52.156;21.048;2022-11-02T13:20:00;15.10;99.90
18305;DHT22;9278;52.156;21.048;2022-11-02T13:22:34;15.10;99.90
18305;DHT22;9278;52.156;21.048;2022-11-02T13:25:13;15.10;99.90
18305;DHT22;9278;52.156;21.048;2022-11-02T13:27:49;15.00;99.90
18305;DHT22;9278;52.156;21.048;2022-11-02T13:30:20;15.00;99.90
18305;DHT22;9278;52.156;21.048;2022-11-02T13:32:53;15.00;99.90
18305;DHT22;9278;52.156;21.048;2022-11-02T13:35:29;14.80;99.90
18305;DHT22;9278;52.156;21.048;2022-11-02T13:38:04;14.80;99.90
18305;DHT22;9278;52.156;21.048;2022-11-02T13:40:37;14.90;99.90
18305;DHT22;9278;52.156;21.048;2022-11-02T13:46:20;15.00;99.90
18305;DHT22;9278;52.156;21.048;2022-11-02T13:48:54;14.90;99.90
18305;DHT22;9278;52.156;21.048;2022-11-02T13:51:31;15.00;99.90
18305;DHT22;9278;52.156;21.048;2022-11-02T13:54:05;15.00;99.90
18305;DHT22;9278;52.156;21.048;2022-11-02T13:56:36;14.90;99.90
18305;DHT22;9278;52.156;21.048;2022-11-02T13:59:07;14.70;99.90
18305;DHT22;9278;52.156;21.048;2022-11-02T14:01:38;14.70;99.90
18305;DHT22;9278;52.156;21.048;2022-11-02T14:04:10;14.50;99.90
18305;DHT22;9278;52.156;21.048;2022-11-02T14:06:46;14.60;99.90
18305;DHT22;9278;52.156;21.048;2022-11-02T14:09:25;14.30;99.90
18305;DHT22;9278;52.156;21.048;2022-11-02T14:12:11;14.30;99.90
18305;DHT22;9278;52.156;21.048;2022-11-02T14:14:40;14.30;99.90
18305;DHT22;9278;52.156;21.048;2022-11-02T14:17:12;14.00;99.90
18305;DHT22;9278;52.156;21.048;2022-11-02T14:19:54;13.90;99.90
18305;DHT22;9278;52.156;21.048;2022-11-02T14:22:23;13.80;99.90
18305;DHT22;9278;52.156;21.048;2022-11-02T14:27:38;13.80;99.90
18305;DHT22;9278;52.156;21.048;2022-11-02T14:33:30;13.50;99.90
18305;DHT22;9278;52.156;21.048;2022-11-02T14:36:04;13.40;99.90
18305;DHT22;9278;52.156;21.048;2022-11-02T14:38:50;13.30;99.90
18305;DHT22;9278;52.156;21.048;2022-11-02T14:41:40;13.30;99.90
18305;DHT22;9278;52.156;21.048;2022-11-02T14:47:27;13.00;99.90
18305;DHT22;9278;52.156;21.048;2022-11-02T14:50:02;12.90;99.90
18305;DHT22;9278;52.156;21.048;2022-11-02T14:52:33;12.90;99.90
18305;DHT22;9278;52.156;21.048;2022-11-02T14:55:05;12.90;99.90
18305;DHT22;9278;52.156;21.048;2022-11-02T14:57:37;12.70;99.90
18305;DHT22;9278;52.156;21.048;2022-11-02T15:00:17;12.60;99.90
18305;DHT22;9278;52.156;21.048;2022-11-02T15:02:46;12.40;99.90
18305;DHT22;9278;52.156;21.048;2022-11-02T15:05:26;12.50;99.90
18305;DHT22;9278;52.156;21.048;2022-11-02T15:07:57;12.50;99.90
18305;DHT22;9278;52.156;21.048;2022-11-02T15:10:42;12.30;99.90
18305;DHT22;9278;52.156;21.048;2022-11-02T15:13:34;12.20;99.90
18305;DHT22;9278;52.156;21.048;2022-11-02T15:16:20;12.00;99.90
18305;DHT22;9278;52.156;21.048;2022-11-02T15:18:49;12.00;1.00
18305;DHT22;9278;52.156;21.048;2022-11-02T15:21:28;11.90;1.00
18305;DHT22;9278;52.156;21.048;2022-11-02T15:26:48;12.10;1.00
18305;DHT22;9278;52.156;21.048;2022-11-02T15:29:31;11.90;1.00
18305;DHT22;9278;52.156;21.048;2022-11-02T15:32:05;11.90;1.00
18305;DHT22;9278;52.156;21.048;2022-11-02T15:34:38;11.80;1.00
18305;DHT22;9278;52.156;21.048;2022-11-02T15:37:15;11.60;1.00
18305;DHT22;9278;52.156;21.048;2022-11-02T15:39:47;11.60;1.00
18305;DHT22;9278;52.156;21.048;2022-11-02T15:42:22;11.40;1.00
18305;DHT22;9278;52.156;21.048;2022-11-02T15:45:19;11.30;1.00
18305;DHT22;9278;52.156;21.048;2022-11-02T15:48:18;11.20;1.00
18305;DHT22;9278;52.156;21.048;2022-11-02T15:50:52;11.10;1.00
18305;DHT22;9278;52.156;21.048;2022-11-02T15:53:36;11.00;1.00
18305;DHT22;9278;52.156;21.048;2022-11-02T15:56:24;10.90;1.00
18305;DHT22;9278;52.156;21.048;2022-11-02T16:02:11;10.80;1.00
18305;DHT22;9278;52.156;21.048;2022-11-02T16:04:44;10.60;1.00
18305;DHT22;9278;52.156;21.048;2022-11-02T16:07:14;10.60;1.00
18305;DHT22;9278;52.156;21.048;2022-11-02T16:09:45;10.70;1.00
18305;DHT22;9278;52.156;21.048;2022-11-02T16:12:15;10.70;1.00
18305;DHT22;9278;52.156;21.048;2022-11-02T16:14:50;10.60;1.00
18305;DHT22;9278;52.156;21.048;2022-11-02T16:17:21;10.70;1.00
18305;DHT22;9278;52.156;21.048;2022-11-02T16:19:49;10.50;1.00
18305;DHT22;9278;52.156;21.048;2022-11-02T16:22:22;10.60;1.00
18305;DHT22;9278;52.156;21.048;2022-11-02T16:24:53;10.40;1.00
18305;DHT22;9278;52.156;21.048;2022-11-02T16:27:21;10.30;1.00
18305;DHT22;9278;52.156;21.048;2022-11-02T16:29:51;10.30;1.00
18305;DHT22;9278;52.156;21.048;2022-11-02T16:32:19;10.30;1.00
18305;DHT22;9278;52.156;21.048;2022-11-02T16:34:47;10.40;1.00
18305;DHT22;9278;52.156;21.048;2022-11-02T16:37:17;10.30;1.00
18305;DHT22;9278;52.156;21.048;2022-11-02T16:39:46;10.40;1.00
18305;DHT22;9278;52.156;21.048;2022-11-02T16:42:17;10.40;1.00